UPSVAC Airport Information Service

Paris Charles de Gaulle Airport

ICAO: LFPG Country: France
Latitude: 49.0125 Longitude: 2.55575
Latest Arrival : UPS2649 (KPHL-LFPG) Latest Departure : UPS2503 (LFPG-KPHL)


WX CaptureLIVE
Data provided by noaa.gov | Fetched at 13:34:54

METAR : LFPG 141300Z 03008KT 360V060 CAVOK 09/M05 Q1029 NOSIG

TAF : LFPG 141100Z 1412/1518 05010KT 9999 SCT045 TX11/1415Z TN01/1505Z PROB30 TEMPO 1515/1518 4900 -SHRA SCT040TCU


Runway Data for LFPG
Data provided by openaviationdata.com

Runway ID Mag Var Hdg Length Elevation Surface ILS Freq ILS Id ILS Slope
08L -2 87° 13944 ft 392 ft Macadam 108.7 GLE 3
08R -2 87° 8832 ft 392 ft Concrete 108.55 DSE 3
09L -2 87° 8840 ft 392 ft Tarmac 109.35 PNE 3
09R -2 87° 13780 ft 392 ft Macadam 110.1 CGE 3
26L -2 267° 8832 ft 392 ft Concrete 108.35 DSU 3
26R -2 267° 13944 ft 392 ft Macadam 109.1 GAU 3
27L -2 267° 13780 ft 392 ft Macadam 110.7 CGW 3
27R -2 267° 8840 ft 392 ft Tarmac 110.35 PNW 3

Paris Charles de Gaulle Airport, France
Use only for reference purposes



Not for navigational purposes.